createdAt,value
2023-06-29T00:01:25.433Z,78.38
2023-06-29T00:04:30.741Z,78.38
2023-06-29T00:07:34.948Z,78.50
2023-06-29T00:10:38.854Z,78.19
2023-06-29T00:13:43.025Z,77.76
2023-06-29T00:16:51.675Z,78.42
2023-06-29T00:19:55.509Z,78.06
2023-06-29T00:23:00.465Z,78.41
2023-06-29T00:26:05.056Z,78.53
2023-06-29T00:29:08.614Z,78.48
2023-06-29T00:32:15.367Z,78.67
2023-06-29T00:35:21.828Z,78.32
2023-06-29T00:38:26.175Z,78.50
2023-06-29T00:41:29.866Z,78.30
2023-06-29T00:44:33.842Z,78.04
2023-06-29T00:47:39.295Z,78.13
2023-06-29T00:50:44.340Z,78.09
2023-06-29T00:53:51.787Z,78.11
2023-06-29T00:57:00.019Z,78.58
2023-06-29T01:00:06.934Z,78.08
2023-06-29T01:03:15.478Z,78.45
2023-06-29T01:06:25.272Z,78.86
2023-06-29T01:09:32.408Z,78.16
2023-06-29T01:12:37.212Z,78.18
2023-06-29T01:15:43.292Z,78.27
2023-06-29T01:18:50.292Z,78.65
2023-06-29T01:22:03.262Z,78.70
2023-06-29T01:25:11.696Z,78.94
2023-06-29T01:28:15.969Z,78.86
2023-06-29T01:31:19.939Z,78.24
2023-06-29T01:34:24.206Z,78.18
2023-06-29T01:37:33.440Z,78.27
2023-06-29T01:40:42.904Z,78.61
2023-06-29T01:43:47.479Z,78.71
2023-06-29T01:46:56.492Z,78.47
2023-06-29T01:50:01.175Z,78.56
2023-06-29T01:53:05.395Z,78.70
2023-06-29T01:56:10.589Z,78.77
2023-06-29T01:59:14.752Z,78.81
2023-06-29T02:02:18.422Z,78.42
2023-06-29T02:05:22.680Z,78.75
2023-06-29T02:08:27.642Z,78.53
2023-06-29T02:11:32.967Z,78.79
2023-06-29T02:14:36.744Z,78.58
2023-06-29T02:17:40.642Z,78.54
2023-06-29T02:20:44.520Z,78.97
2023-06-29T02:23:48.470Z,79.03
2023-06-29T02:26:54.075Z,78.69
2023-06-29T02:29:58.135Z,78.82
2023-06-29T02:33:01.730Z,78.79
2023-06-29T02:36:06.772Z,79.13
2023-06-29T02:39:10.848Z,78.85
2023-06-29T02:42:16.253Z,78.74
2023-06-29T02:45:19.873Z,78.63
2023-06-29T02:48:24.028Z,79.07
2023-06-29T02:51:28.050Z,79.19
2023-06-29T02:54:37.883Z,78.71
2023-06-29T02:57:42.942Z,79.04
2023-06-29T03:00:46.824Z,79.26
2023-06-29T03:03:50.592Z,79.01
2023-06-29T03:06:54.474Z,79.20
2023-06-29T03:09:58.059Z,79.16
2023-06-29T03:13:03.219Z,79.41
2023-06-29T03:16:09.183Z,79.06
2023-06-29T03:19:14.866Z,79.46
2023-06-29T03:22:18.573Z,79.32
2023-06-29T03:25:22.780Z,79.09
2023-06-29T03:28:28.015Z,79.18
2023-06-29T03:31:31.851Z,79.67
2023-06-29T03:34:35.541Z,79.01
2023-06-29T03:37:39.495Z,79.07
2023-06-29T03:40:43.124Z,79.62
2023-06-29T03:43:49.449Z,79.45
2023-06-29T03:46:53.818Z,79.56
2023-06-29T03:49:57.863Z,80.08
2023-06-29T03:53:01.484Z,79.88
2023-06-29T03:56:05.932Z,79.66
2023-06-29T03:59:10.917Z,79.87
2023-06-29T04:02:14.975Z,79.78
2023-06-29T04:05:19.321Z,79.40
2023-06-29T04:08:23.768Z,79.36
2023-06-29T04:11:27.358Z,80.08
2023-06-29T04:14:32.717Z,79.85
2023-06-29T04:17:36.603Z,79.78
2023-06-29T04:20:40.493Z,79.52
2023-06-29T04:23:44.139Z,79.76
2023-06-29T04:26:48.002Z,79.93
2023-06-29T04:29:53.433Z,79.98
2023-06-29T04:33:00.864Z,79.82
2023-06-29T04:36:05.265Z,79.79
2023-06-29T04:39:09.974Z,79.57
2023-06-29T04:42:14.744Z,79.64
2023-06-29T04:45:20.080Z,79.66
2023-06-29T04:48:30.009Z,79.57
2023-06-29T04:51:33.889Z,79.29
2023-06-29T04:54:37.845Z,79.67
2023-06-29T04:57:41.686Z,79.42
2023-06-29T05:00:47.330Z,79.40
2023-06-29T05:03:51.749Z,79.29
2023-06-29T05:06:56.201Z,78.79
2023-06-29T05:10:00.542Z,79.14
2023-06-29T05:13:04.186Z,79.05
2023-06-29T05:16:09.800Z,78.72
2023-06-29T05:19:13.824Z,78.86
2023-06-29T05:22:17.864Z,78.60
2023-06-29T05:25:21.946Z,78.94
2023-06-29T05:28:25.661Z,78.43
2023-06-29T05:31:30.816Z,78.56
2023-06-29T05:34:36.598Z,78.24
2023-06-29T05:37:40.900Z,77.96
2023-06-29T05:40:44.977Z,77.88
2023-06-29T05:43:48.859Z,77.36
2023-06-29T05:46:54.013Z,77.75
2023-06-29T05:49:57.736Z,77.75
2023-06-29T05:53:01.530Z,76.86
2023-06-29T05:56:05.835Z,77.06
2023-06-29T05:59:09.666Z,76.65
2023-06-29T06:02:14.644Z,76.70
2023-06-29T06:05:18.608Z,77.44
2023-06-29T06:08:22.509Z,77.06
2023-06-29T06:11:26.333Z,77.01
2023-06-29T06:14:30.111Z,77.08
2023-06-29T06:17:35.324Z,76.58
2023-06-29T06:20:39.269Z,76.46
2023-06-29T06:23:43.010Z,76.10
2023-06-29T06:26:47.006Z,75.76
2023-06-29T06:29:50.737Z,75.79
2023-06-29T06:32:55.743Z,76.21
2023-06-29T06:36:00.751Z,75.72
2023-06-29T06:39:04.893Z,75.43
2023-06-29T06:42:08.986Z,75.51
2023-06-29T06:45:14.769Z,75.15
2023-06-29T06:48:20.091Z,75.01
2023-06-29T06:51:24.233Z,74.88
2023-06-29T06:54:28.097Z,75.00
2023-06-29T06:57:31.937Z,74.60
2023-06-29T07:00:35.918Z,74.85
2023-06-29T07:03:41.141Z,74.87
2023-06-29T07:06:44.851Z,74.71
2023-06-29T07:09:49.445Z,74.68
2023-06-29T07:12:53.396Z,74.71
2023-06-29T07:15:57.965Z,74.79
2023-06-29T07:25:22.290Z,74.47
2023-06-29T07:28:25.996Z,74.07
2023-06-29T07:31:30.892Z,74.10
2023-06-29T07:34:36.027Z,73.82
2023-06-29T07:37:39.745Z,73.76
2023-06-29T07:40:43.665Z,73.64
2023-06-29T07:43:51.309Z,73.49
2023-06-29T07:46:54.986Z,73.20
2023-06-29T07:50:00.151Z,72.73
2023-06-29T07:53:04.023Z,72.15
2023-06-29T07:56:07.821Z,71.82
2023-06-29T07:59:11.543Z,70.88
2023-06-29T08:02:15.559Z,70.61
2023-06-29T08:08:31.068Z,69.63
2023-06-29T08:11:35.283Z,68.97
2023-06-29T08:14:40.188Z,68.71
2023-06-29T08:17:44.505Z,68.69
2023-06-29T08:20:50.031Z,68.43
2023-06-29T08:23:54.138Z,68.02
2023-06-29T08:26:57.878Z,67.62
2023-06-29T08:30:03.441Z,67.29
2023-06-29T08:33:07.432Z,67.14
2023-06-29T08:36:13.079Z,66.73
2023-06-29T08:39:16.764Z,66.43
2023-06-29T08:42:20.898Z,65.99
2023-06-29T08:45:24.816Z,65.35
2023-06-29T08:48:32.232Z,64.74
2023-06-29T08:51:41.562Z,64.41
2023-06-29T08:54:45.586Z,65.78
2023-06-29T08:57:49.453Z,65.55
2023-06-29T09:00:55.619Z,65.18
2023-06-29T09:03:59.929Z,64.73
2023-06-29T09:07:05.584Z,64.13
2023-06-29T09:10:12.612Z,63.95
2023-06-29T09:13:16.424Z,63.78
2023-06-29T09:16:20.260Z,63.33
2023-06-29T09:19:25.525Z,63.35
2023-06-29T09:22:31.978Z,63.46
2023-06-29T09:25:40.132Z,63.63
2023-06-29T09:28:47.905Z,62.99
2023-06-29T09:31:58.508Z,62.14
2023-06-29T09:35:08.313Z,59.83
2023-06-29T09:38:13.752Z,62.03
2023-06-29T09:41:17.410Z,61.72
2023-06-29T09:44:22.356Z,61.85
2023-06-29T09:50:35.064Z,61.46
2023-06-29T09:53:40.259Z,60.80
2023-06-29T09:56:45.242Z,60.18
2023-06-29T09:59:50.848Z,60.12
2023-06-29T10:02:55.702Z,60.14
2023-06-29T10:06:08.632Z,58.35
2023-06-29T10:09:18.647Z,59.44
2023-06-29T10:12:27.475Z,58.75
2023-06-29T10:15:31.776Z,58.07
2023-06-29T10:18:39.766Z,58.00
2023-06-29T10:21:45.145Z,58.60
2023-06-29T10:24:55.452Z,57.43
2023-06-29T10:27:59.342Z,57.60
2023-06-29T10:31:03.245Z,56.98
2023-06-29T10:34:09.390Z,56.80
2023-06-29T10:37:31.686Z,56.54
2023-06-29T10:40:48.201Z,55.86
2023-06-29T10:43:59.214Z,56.80
2023-06-29T10:47:03.225Z,57.05
2023-06-29T10:50:21.459Z,56.11
2023-06-29T10:53:25.121Z,55.81
2023-06-29T10:56:33.497Z,54.62
2023-06-29T10:59:38.511Z,55.01
2023-06-29T11:02:43.496Z,54.59
2023-06-29T11:05:50.398Z,53.49
2023-06-29T11:08:54.202Z,53.63
2023-06-29T11:12:01.630Z,50.63
2023-06-29T11:18:33.463Z,51.84
2023-06-29T11:21:37.194Z,51.38
2023-06-29T11:24:43.855Z,51.30
2023-06-29T11:27:49.123Z,50.69
2023-06-29T11:30:56.134Z,50.80
2023-06-29T11:34:01.385Z,51.50
2023-06-29T11:40:21.544Z,51.79
2023-06-29T11:46:35.804Z,52.17
2023-06-29T11:49:39.679Z,51.22
2023-06-29T11:52:45.707Z,49.87
2023-06-29T11:55:52.740Z,49.10
2023-06-29T11:58:57.794Z,48.26
2023-06-29T12:02:02.428Z,47.53
2023-06-29T12:05:07.374Z,48.32
2023-06-29T12:08:11.679Z,49.19
2023-06-29T12:11:22.964Z,49.31
2023-06-29T12:14:31.070Z,48.25
2023-06-29T12:20:44.695Z,48.60
2023-06-29T12:23:50.709Z,47.81
2023-06-29T12:26:54.397Z,47.58
2023-06-29T12:29:59.531Z,46.41
2023-06-29T12:33:03.442Z,46.29
2023-06-29T12:36:07.175Z,46.01
2023-06-29T12:39:11.143Z,45.85
2023-06-29T12:42:14.873Z,46.12
2023-06-29T12:45:20.789Z,46.32
2023-06-29T12:48:24.563Z,46.11
2023-06-29T12:51:30.312Z,45.61
2023-06-29T12:54:34.869Z,45.98
2023-06-29T12:57:40.295Z,45.47
2023-06-29T13:00:45.555Z,44.90
2023-06-29T13:03:49.620Z,44.76
2023-06-29T13:06:55.942Z,44.47
2023-06-29T13:10:00.462Z,45.05
2023-06-29T13:13:04.930Z,45.03
2023-06-29T13:16:10.291Z,41.10
2023-06-29T13:19:14.026Z,36.00
2023-06-29T13:22:19.870Z,32.78
2023-06-29T13:25:23.650Z,30.23
2023-06-29T13:28:27.822Z,30.10
2023-06-29T13:31:33.003Z,31.38
2023-06-29T13:34:36.793Z,29.88
2023-06-29T13:37:40.490Z,27.52
2023-06-29T13:40:44.587Z,28.25
2023-06-29T13:43:48.522Z,30.01
2023-06-29T13:46:53.858Z,26.59
2023-06-29T13:49:57.562Z,24.52
2023-06-29T13:53:02.644Z,23.59
2023-06-29T13:56:06.867Z,22.22
2023-06-29T13:59:11.406Z,21.35
2023-06-29T14:02:16.763Z,20.62
2023-06-29T14:05:21.451Z,21.19
2023-06-29T14:08:25.803Z,23.89
2023-06-29T14:11:29.917Z,25.22
2023-06-29T14:14:36.279Z,25.03
2023-06-29T14:17:42.590Z,28.61
2023-06-29T14:20:46.396Z,28.27
2023-06-29T14:23:50.872Z,24.94
2023-06-29T14:26:54.954Z,23.02
2023-06-29T14:29:59.015Z,22.86
2023-06-29T14:33:10.270Z,24.82
2023-06-29T14:36:19.725Z,24.11
2023-06-29T14:39:23.411Z,22.37
2023-06-29T14:42:27.248Z,21.11
2023-06-29T14:45:30.901Z,19.93
2023-06-29T14:48:36.037Z,19.25
2023-06-29T14:51:39.933Z,19.39
2023-06-29T14:54:43.898Z,19.42
2023-06-29T14:57:49.748Z,19.09
2023-06-29T15:00:54.528Z,20.17
2023-06-29T15:03:59.849Z,19.57
2023-06-29T15:07:04.068Z,19.08
2023-06-29T15:10:09.231Z,19.21
2023-06-29T15:13:13.026Z,18.68
2023-06-29T15:16:17.222Z,18.12
2023-06-29T15:19:22.420Z,18.16
2023-06-29T15:22:26.372Z,18.74
2023-06-29T15:25:30.486Z,18.68
2023-06-29T15:28:34.284Z,18.31
2023-06-29T15:31:38.068Z,18.07
2023-06-29T15:34:43.206Z,18.39
2023-06-29T15:37:47.094Z,18.16
2023-06-29T15:40:51.565Z,18.47
2023-06-29T15:44:01.406Z,17.65
2023-06-29T15:47:07.327Z,19.01
2023-06-29T15:50:13.125Z,18.83
2023-06-29T15:53:16.898Z,18.83
2023-06-29T15:56:20.883Z,18.92
2023-06-29T16:07:49.739Z,18.57
2023-06-29T16:10:55.895Z,18.96
2023-06-29T16:13:59.705Z,19.34
2023-06-29T16:17:03.934Z,19.73
2023-06-29T16:20:09.477Z,19.85
2023-06-29T16:23:14.879Z,20.06
2023-06-29T16:26:19.077Z,19.90
2023-06-29T16:29:23.322Z,19.94
2023-06-29T16:32:27.002Z,20.01
2023-06-29T16:35:30.840Z,20.42
2023-06-29T16:38:35.893Z,20.85
2023-06-29T16:41:40.571Z,21.05
2023-06-29T16:44:44.163Z,22.07
2023-06-29T16:47:48.034Z,22.33
2023-06-29T16:50:51.614Z,22.07
2023-06-29T16:53:57.161Z,22.65
2023-06-29T16:57:00.722Z,22.69
2023-06-29T17:00:05.327Z,23.48
2023-06-29T17:03:09.172Z,23.44
2023-06-29T17:06:13.458Z,24.24
2023-06-29T17:09:18.968Z,24.56
2023-06-29T17:12:23.062Z,24.41
2023-06-29T17:15:26.843Z,24.60
2023-06-29T17:18:30.704Z,25.75
2023-06-29T17:21:34.254Z,25.97
2023-06-29T17:24:41.140Z,26.10
2023-06-29T17:27:44.664Z,26.30
2023-06-29T17:30:49.569Z,27.27
2023-06-29T17:33:55.317Z,27.21
2023-06-29T17:37:01.122Z,27.49
2023-06-29T17:40:10.657Z,28.26
2023-06-29T17:43:14.479Z,28.56
2023-06-29T17:46:18.231Z,28.83
2023-06-29T17:49:26.132Z,29.27
2023-06-29T17:52:30.214Z,29.68
2023-06-29T17:55:35.547Z,30.38
2023-06-29T17:58:39.242Z,30.42
2023-06-29T18:01:43.141Z,31.26
2023-06-29T18:04:46.707Z,31.76
2023-06-29T18:07:50.589Z,31.90
2023-06-29T18:10:55.900Z,32.37
2023-06-29T18:14:00.219Z,33.17
2023-06-29T18:17:04.627Z,34.64
2023-06-29T18:20:10.895Z,35.80
2023-06-29T18:23:14.536Z,36.35
2023-06-29T18:26:20.556Z,37.42
2023-06-29T18:29:24.579Z,38.26
2023-06-29T18:32:28.603Z,38.85
2023-06-29T18:35:32.283Z,39.07
2023-06-29T18:38:35.981Z,39.95
2023-06-29T18:41:40.857Z,40.46
2023-06-29T18:44:44.566Z,40.83
2023-06-29T18:47:48.934Z,41.65
2023-06-29T18:50:52.792Z,42.56
2023-06-29T18:53:56.320Z,43.35
2023-06-29T18:57:03.738Z,43.95
2023-06-29T19:00:09.690Z,44.62
2023-06-29T19:03:13.627Z,45.12
2023-06-29T19:06:17.478Z,45.83
2023-06-29T19:09:24.558Z,46.66
2023-06-29T19:12:29.781Z,47.54
2023-06-29T19:15:33.733Z,48.04
2023-06-29T19:18:37.589Z,48.43
2023-06-29T19:21:49.138Z,49.02
2023-06-29T19:24:54.169Z,49.44
2023-06-29T19:27:59.583Z,49.95
2023-06-29T19:31:03.610Z,50.41
2023-06-29T19:34:08.170Z,50.93
2023-06-29T19:37:12.073Z,51.26
2023-06-29T19:40:16.014Z,51.81
2023-06-29T19:43:21.125Z,51.93
2023-06-29T19:46:25.126Z,52.20
2023-06-29T19:49:28.870Z,52.59
2023-06-29T19:52:32.858Z,53.02
2023-06-29T19:55:36.550Z,53.24
2023-06-29T19:58:41.995Z,53.54
2023-06-29T20:01:45.710Z,54.25
2023-06-29T20:04:50.503Z,54.12
2023-06-29T20:07:55.486Z,54.60
2023-06-29T20:10:59.416Z,54.71
2023-06-29T20:14:04.982Z,55.04
2023-06-29T20:17:09.069Z,55.17
2023-06-29T20:20:14.102Z,55.63
2023-06-29T20:23:19.978Z,55.73
2023-06-29T20:26:23.893Z,56.34
2023-06-29T20:29:29.062Z,56.74
2023-06-29T20:32:33.134Z,57.20
2023-06-29T20:35:37.750Z,57.34
2023-06-29T20:38:43.086Z,57.64
2023-06-29T20:41:47.225Z,57.93
2023-06-29T20:44:57.414Z,57.44
2023-06-29T20:48:01.530Z,58.57
2023-06-29T20:51:17.176Z,58.81
2023-06-29T20:54:22.830Z,59.18
2023-06-29T20:57:26.535Z,59.14
2023-06-29T21:00:33.920Z,59.03
